createdAt,value
2018-05-18T00:01:12.358Z,15.83
2018-05-18T00:03:39.918Z,15.79
2018-05-18T00:06:07.474Z,15.78
2018-05-18T00:08:35.139Z,15.76
2018-05-18T00:11:02.776Z,15.77
2018-05-18T00:13:30.396Z,15.77
2018-05-18T00:15:57.964Z,15.78
2018-05-18T00:18:25.520Z,15.78
2018-05-18T00:20:53.137Z,15.76
2018-05-18T00:23:20.701Z,15.69
2018-05-18T00:25:48.269Z,15.63
2018-05-18T00:28:15.824Z,15.59
2018-05-18T00:30:43.411Z,15.60
2018-05-18T00:33:10.968Z,15.64
2018-05-18T00:35:38.584Z,15.69
2018-05-18T00:38:06.146Z,15.73
2018-05-18T00:40:33.772Z,15.74
2018-05-18T00:43:01.341Z,15.73
2018-05-18T00:45:29.171Z,15.72
2018-05-18T00:47:56.793Z,15.72
2018-05-18T00:50:24.399Z,15.69
2018-05-18T00:52:51.935Z,15.67
2018-05-18T00:55:31.450Z,15.66
2018-05-18T00:57:59.021Z,15.71
2018-05-18T01:00:26.590Z,15.71
2018-05-18T01:02:54.208Z,15.70
2018-05-18T01:05:21.832Z,15.67
2018-05-18T01:07:49.471Z,15.64
2018-05-18T01:10:17.104Z,15.70
2018-05-18T01:12:44.641Z,15.72
2018-05-18T01:15:12.208Z,15.72
2018-05-18T01:17:39.829Z,15.73
2018-05-18T01:20:07.401Z,15.63
2018-05-18T01:22:35.054Z,15.52
2018-05-18T01:25:02.678Z,15.45
2018-05-18T01:27:30.258Z,15.39
2018-05-18T01:29:57.877Z,15.33
2018-05-18T01:32:25.520Z,15.28
2018-05-18T01:34:53.152Z,15.23
2018-05-18T01:37:20.723Z,15.15
2018-05-18T01:39:48.269Z,15.04
2018-05-18T01:42:15.912Z,15.01
2018-05-18T01:44:43.533Z,14.90
2018-05-18T01:47:11.158Z,14.84
2018-05-18T01:49:38.739Z,14.83
2018-05-18T01:52:06.323Z,14.81
2018-05-18T01:54:33.901Z,14.78
2018-05-18T01:57:01.533Z,14.73
2018-05-18T01:59:29.224Z,14.71
2018-05-18T02:01:56.781Z,14.70
2018-05-18T02:04:24.372Z,14.71
2018-05-18T02:06:51.933Z,14.72
2018-05-18T02:09:19.579Z,14.72
2018-05-18T02:11:47.143Z,14.72
2018-05-18T02:14:14.746Z,14.70
2018-05-18T02:16:42.308Z,14.70
2018-05-18T02:19:09.937Z,14.70
2018-05-18T02:21:37.508Z,14.72
2018-05-18T02:24:05.064Z,14.78
2018-05-18T02:26:32.637Z,14.82
2018-05-18T02:29:00.205Z,14.85
2018-05-18T02:31:27.922Z,14.89
2018-05-18T02:33:55.550Z,15.00
2018-05-18T02:36:23.113Z,15.04
2018-05-18T02:38:50.741Z,15.03
2018-05-18T02:41:18.301Z,15.04
2018-05-18T02:43:45.872Z,15.03
2018-05-18T02:46:13.502Z,14.99
2018-05-18T02:48:41.136Z,14.96
2018-05-18T02:51:08.696Z,14.95
2018-05-18T02:53:36.313Z,14.97
2018-05-18T02:56:03.950Z,14.93
2018-05-18T02:58:31.516Z,14.91
2018-05-18T03:00:59.092Z,14.83
2018-05-18T03:03:26.730Z,14.75
2018-05-18T03:05:54.430Z,14.68
2018-05-18T03:08:21.996Z,14.68
2018-05-18T03:10:49.633Z,14.65
2018-05-18T03:13:17.209Z,14.61
2018-05-18T03:15:44.854Z,14.68
2018-05-18T03:18:12.433Z,14.83
2018-05-18T03:20:40.061Z,14.95
2018-05-18T03:23:07.632Z,15.00
2018-05-18T03:25:35.193Z,14.99
2018-05-18T03:28:02.871Z,15.00
2018-05-18T03:30:30.436Z,15.02
2018-05-18T03:32:58.069Z,15.10
2018-05-18T03:35:25.705Z,15.17
2018-05-18T03:37:53.251Z,15.24
2018-05-18T03:40:20.825Z,15.31
2018-05-18T03:42:48.403Z,15.33
2018-05-18T03:45:15.976Z,15.36
2018-05-18T03:47:43.597Z,15.41
2018-05-18T03:50:11.220Z,15.53
2018-05-18T03:52:38.792Z,15.70
2018-05-18T03:55:06.364Z,15.85
2018-05-18T03:57:33.943Z,16.05
2018-05-18T04:00:01.569Z,16.23
2018-05-18T04:02:40.850Z,16.34
2018-05-18T04:05:20.114Z,16.43
2018-05-18T04:07:59.509Z,16.64
2018-05-18T04:10:27.084Z,16.95
2018-05-18T04:12:54.652Z,17.23
2018-05-18T04:15:22.230Z,18.01
2018-05-18T04:17:49.797Z,20.37
2018-05-18T04:20:17.373Z,22.90
2018-05-18T04:22:44.948Z,24.89
2018-05-18T04:25:12.517Z,26.79
2018-05-18T04:27:40.080Z,28.17
2018-05-18T04:30:07.792Z,28.87
2018-05-18T04:32:35.302Z,29.35
2018-05-18T04:35:02.865Z,30.63
2018-05-18T04:37:30.434Z,31.62
2018-05-18T04:39:58.002Z,32.53
2018-05-18T04:42:25.597Z,32.62
2018-05-18T04:44:53.171Z,33.04
2018-05-18T04:47:20.764Z,33.29
2018-05-18T04:49:48.459Z,33.30
2018-05-18T04:52:16.029Z,33.48
2018-05-18T04:54:43.650Z,34.23
2018-05-18T04:57:11.252Z,34.46
2018-05-18T04:59:38.803Z,34.16
2018-05-18T05:02:06.357Z,34.08
2018-05-18T05:04:33.974Z,33.74
2018-05-18T05:07:01.590Z,34.26
2018-05-18T05:09:29.152Z,34.52
2018-05-18T05:11:56.783Z,34.30
2018-05-18T05:14:24.354Z,34.22
2018-05-18T05:16:51.977Z,34.82
2018-05-18T05:19:19.537Z,34.89
2018-05-18T05:21:47.097Z,34.65
2018-05-18T05:24:14.671Z,35.28
2018-05-18T05:26:42.237Z,35.42
2018-05-18T05:29:09.913Z,35.97
2018-05-18T05:31:37.474Z,36.46
2018-05-18T05:34:05.017Z,36.63
2018-05-18T05:36:32.703Z,36.43
2018-05-18T05:39:00.256Z,35.87
2018-05-18T05:41:27.819Z,35.68
2018-05-18T05:43:57.260Z,35.55
2018-05-18T05:46:24.876Z,35.40
2018-05-18T05:48:52.699Z,35.14
2018-05-18T05:51:20.257Z,34.01
2018-05-18T05:53:47.862Z,32.75
2018-05-18T05:56:15.472Z,31.50
2018-05-18T05:58:43.093Z,31.98
2018-05-18T06:01:10.652Z,33.30
2018-05-18T06:03:38.216Z,33.89
2018-05-18T06:06:05.773Z,33.96
2018-05-18T06:08:33.315Z,34.14
2018-05-18T06:11:00.917Z,33.33
2018-05-18T06:13:28.492Z,32.00
2018-05-18T06:15:56.111Z,30.58
2018-05-18T06:18:23.734Z,30.60
2018-05-18T06:20:51.350Z,31.89
2018-05-18T06:23:18.986Z,32.56
2018-05-18T06:25:46.561Z,32.48
2018-05-18T06:28:14.172Z,32.76
2018-05-18T06:30:41.804Z,32.38
2018-05-18T06:33:09.365Z,32.33
2018-05-18T06:35:36.988Z,32.88
2018-05-18T06:38:04.535Z,32.78
2018-05-18T06:40:32.147Z,31.95
2018-05-18T06:42:59.757Z,30.61
2018-05-18T06:45:27.373Z,30.37
2018-05-18T06:47:54.936Z,29.37
2018-05-18T06:50:22.559Z,28.59
2018-05-18T06:52:50.184Z,28.00
2018-05-18T06:55:17.861Z,27.47
2018-05-18T06:57:45.436Z,27.48
2018-05-18T07:00:13.000Z,27.69
2018-05-18T07:02:40.556Z,28.63
2018-05-18T07:05:08.229Z,28.98
2018-05-18T07:07:35.805Z,28.69
2018-05-18T07:10:03.435Z,28.36
2018-05-18T07:12:31.079Z,28.54
2018-05-18T07:14:58.632Z,28.73
2018-05-18T07:17:26.253Z,28.80
2018-05-18T07:19:53.909Z,28.81
2018-05-18T07:22:21.562Z,28.35
2018-05-18T07:24:49.189Z,28.21
2018-05-18T07:27:16.745Z,28.40
2018-05-18T07:29:44.358Z,29.21
2018-05-18T07:32:12.075Z,29.68
2018-05-18T07:34:39.638Z,29.89
2018-05-18T07:37:07.261Z,29.84
2018-05-18T07:39:34.898Z,30.08
2018-05-18T07:42:02.560Z,30.36
2018-05-18T07:44:30.129Z,30.04
2018-05-18T07:46:57.732Z,29.96
2018-05-18T07:49:25.303Z,30.20
2018-05-18T07:51:52.882Z,30.05
2018-05-18T07:54:20.519Z,30.39
2018-05-18T07:56:48.143Z,30.66
2018-05-18T07:59:15.762Z,30.42
2018-05-18T08:01:43.446Z,30.37
2018-05-18T08:04:11.045Z,30.43
2018-05-18T08:06:38.673Z,30.54
2018-05-18T08:09:06.277Z,30.11
2018-05-18T08:11:33.893Z,30.14
2018-05-18T08:14:01.484Z,30.22
2018-05-18T08:16:29.105Z,30.74
2018-05-18T08:18:56.735Z,31.10
2018-05-18T08:21:24.297Z,31.16
2018-05-18T08:23:51.953Z,31.23
2018-05-18T08:26:19.577Z,31.61
2018-05-18T08:28:58.967Z,31.79
2018-05-18T08:31:26.585Z,32.09
2018-05-18T08:33:54.159Z,31.76
2018-05-18T08:36:21.720Z,31.63
2018-05-18T08:38:49.287Z,31.88
2018-05-18T08:41:16.855Z,31.75
2018-05-18T08:43:44.464Z,31.26
2018-05-18T08:46:12.021Z,30.83
2018-05-18T08:48:39.581Z,30.23
2018-05-18T08:51:07.153Z,29.98
2018-05-18T08:53:34.712Z,29.93
2018-05-18T08:56:02.393Z,29.90
2018-05-18T08:58:29.953Z,29.68
2018-05-18T09:00:57.514Z,29.52
2018-05-18T09:03:25.062Z,29.66
2018-05-18T09:05:52.613Z,29.49
2018-05-18T09:08:20.228Z,29.44
2018-05-18T09:10:47.845Z,29.28
2018-05-18T09:13:15.396Z,29.40
2018-05-18T09:15:43.021Z,29.62
2018-05-18T09:18:10.765Z,29.60
2018-05-18T09:20:38.333Z,29.68
2018-05-18T09:23:05.949Z,29.81
2018-05-18T09:25:33.560Z,29.91
2018-05-18T09:28:01.117Z,30.04
2018-05-18T09:30:28.673Z,29.95
2018-05-18T09:32:56.236Z,29.96
2018-05-18T09:35:23.921Z,30.36
2018-05-18T09:37:51.500Z,30.77
2018-05-18T09:40:19.064Z,31.12
2018-05-18T09:42:46.678Z,31.35
2018-05-18T09:45:14.259Z,31.63
2018-05-18T09:47:41.821Z,32.40
2018-05-18T09:50:09.485Z,32.79
2018-05-18T09:52:37.058Z,32.38
2018-05-18T09:55:04.694Z,32.17
2018-05-18T09:57:32.237Z,32.49
2018-05-18T09:59:59.876Z,33.14
2018-05-18T10:02:27.449Z,33.57
2018-05-18T10:04:55.018Z,33.76
2018-05-18T10:07:22.657Z,33.64
2018-05-18T10:09:50.213Z,33.63
2018-05-18T10:12:17.889Z,33.49
2018-05-18T10:14:45.525Z,33.14
2018-05-18T10:17:13.204Z,33.06
2018-05-18T10:19:40.861Z,33.06
2018-05-18T10:22:08.419Z,33.15
2018-05-18T10:24:36.005Z,33.06
2018-05-18T10:27:03.636Z,33.30
2018-05-18T10:29:31.176Z,33.63
2018-05-18T10:31:58.810Z,33.47
2018-05-18T10:34:26.524Z,33.22
2018-05-18T10:36:54.148Z,33.62
2018-05-18T10:39:21.729Z,33.80
2018-05-18T10:41:49.356Z,33.71
2018-05-18T10:44:16.917Z,34.51
2018-05-18T10:46:44.488Z,34.91
2018-05-18T10:49:12.113Z,35.27
2018-05-18T10:51:39.813Z,35.53
2018-05-18T10:54:07.381Z,35.77
2018-05-18T10:56:34.956Z,35.41
2018-05-18T10:59:02.538Z,35.12
2018-05-18T11:01:30.088Z,35.25
2018-05-18T11:03:57.660Z,35.75
2018-05-18T11:06:25.229Z,35.17
2018-05-18T11:08:52.909Z,35.08
2018-05-18T11:11:20.468Z,34.07
2018-05-18T11:13:48.072Z,33.29
2018-05-18T11:16:15.639Z,33.22
2018-05-18T11:18:43.267Z,33.06
2018-05-18T11:21:10.871Z,32.42
2018-05-18T11:23:38.425Z,32.79
2018-05-18T11:26:06.050Z,33.70
2018-05-18T11:28:33.621Z,34.67
2018-05-18T11:31:01.176Z,35.06
2018-05-18T11:33:28.788Z,34.86
2018-05-18T11:35:56.405Z,35.20
2018-05-18T11:38:23.965Z,35.42
2018-05-18T11:40:51.628Z,35.55
2018-05-18T11:43:19.249Z,34.95
2018-05-18T11:45:46.921Z,34.54
2018-05-18T11:48:14.542Z,33.58
2018-05-18T11:50:42.101Z,34.78
2018-05-18T11:53:09.670Z,36.03
2018-05-18T11:55:37.304Z,36.76
2018-05-18T11:58:04.932Z,37.46
2018-05-18T12:00:32.577Z,38.07
2018-05-18T12:03:00.180Z,38.30
2018-05-18T12:05:27.740Z,38.29
2018-05-18T12:07:55.308Z,38.50
2018-05-18T12:10:22.880Z,38.90
2018-05-18T12:12:50.436Z,37.99
2018-05-18T12:15:18.060Z,38.51
2018-05-18T12:17:45.634Z,38.98
2018-05-18T12:20:13.258Z,38.62
2018-05-18T12:22:40.820Z,38.87
2018-05-18T12:25:08.388Z,38.83
2018-05-18T12:27:35.960Z,39.48
2018-05-18T12:30:03.544Z,40.00
2018-05-18T12:32:31.186Z,39.78
2018-05-18T12:34:58.744Z,38.95
2018-05-18T12:37:26.522Z,37.43
2018-05-18T12:39:54.098Z,37.99
2018-05-18T12:42:21.665Z,38.12
2018-05-18T12:44:49.302Z,38.67
2018-05-18T12:47:16.865Z,39.70
2018-05-18T12:49:44.432Z,39.55
2018-05-18T12:52:12.150Z,39.29
2018-05-18T12:54:39.760Z,39.44
2018-05-18T12:57:07.324Z,39.25
2018-05-18T12:59:34.959Z,39.18
2018-05-18T13:02:02.492Z,38.12
2018-05-18T13:04:30.049Z,36.67
2018-05-18T13:06:57.630Z,35.60
2018-05-18T13:09:25.184Z,35.27
2018-05-18T13:11:52.800Z,34.45
2018-05-18T13:14:20.418Z,33.57
2018-05-18T13:16:47.984Z,33.03
2018-05-18T13:19:15.560Z,32.63
2018-05-18T13:21:43.120Z,33.17
2018-05-18T13:24:10.763Z,33.51
2018-05-18T13:26:38.429Z,33.46
2018-05-18T13:29:06.052Z,33.09
2018-05-18T13:31:34.678Z,32.49
2018-05-18T13:34:02.256Z,32.12
2018-05-18T13:36:29.880Z,32.04
2018-05-18T13:38:57.436Z,33.25
2018-05-18T13:41:25.061Z,34.67
2018-05-18T13:43:52.649Z,36.21
2018-05-18T13:46:20.260Z,37.39
2018-05-18T13:48:47.815Z,38.16
2018-05-18T13:51:15.378Z,38.15
2018-05-18T13:53:42.944Z,37.20
2018-05-18T13:56:10.560Z,36.39
2018-05-18T13:58:38.226Z,35.23
2018-05-18T14:01:05.773Z,34.23
2018-05-18T14:03:33.397Z,33.74
2018-05-18T14:06:00.952Z,32.86
2018-05-18T14:08:28.513Z,32.14
2018-05-18T14:10:56.162Z,31.93
2018-05-18T14:13:23.781Z,31.70
2018-05-18T14:15:51.975Z,31.26
2018-05-18T14:18:19.616Z,30.79
2018-05-18T14:20:47.233Z,30.50
2018-05-18T14:23:14.804Z,30.30
2018-05-18T14:25:42.421Z,30.09
2018-05-18T14:28:10.050Z,29.87
2018-05-18T14:30:37.661Z,29.69
2018-05-18T14:33:05.354Z,29.69
2018-05-18T14:35:32.916Z,29.59
2018-05-18T14:38:00.640Z,29.50
2018-05-18T14:40:28.253Z,29.41
2018-05-18T14:42:55.932Z,29.24
2018-05-18T14:45:23.569Z,29.03
2018-05-18T14:47:51.189Z,28.89
2018-05-18T14:50:18.760Z,28.71
2018-05-18T14:52:46.336Z,28.60
2018-05-18T14:55:13.942Z,28.54
2018-05-18T14:57:41.504Z,28.48
2018-05-18T15:00:09.068Z,28.44
2018-05-18T15:02:36.692Z,28.35
2018-05-18T15:05:04.264Z,28.18
2018-05-18T15:07:31.894Z,28.09
2018-05-18T15:09:59.458Z,27.91
2018-05-18T15:12:27.230Z,27.83
2018-05-18T15:14:54.855Z,27.67
2018-05-18T15:17:22.480Z,27.57
2018-05-18T15:19:50.113Z,27.45
2018-05-18T15:22:17.733Z,27.31
2018-05-18T15:24:45.352Z,27.11
2018-05-18T15:27:12.974Z,26.95
2018-05-18T15:29:40.585Z,26.65
2018-05-18T15:32:08.141Z,26.31
2018-05-18T15:34:35.757Z,26.10
2018-05-18T15:37:03.405Z,25.89
2018-05-18T15:39:30.973Z,25.64
2018-05-18T15:41:58.541Z,25.37
2018-05-18T15:44:26.205Z,25.24
2018-05-18T15:46:53.832Z,25.07
2018-05-18T15:49:21.415Z,25.04
2018-05-18T15:51:49.010Z,24.94
2018-05-18T15:54:16.577Z,24.90
2018-05-18T15:56:44.128Z,24.88
2018-05-18T15:59:11.696Z,24.78
2018-05-18T16:01:39.309Z,24.72
2018-05-18T16:04:06.981Z,24.70
2018-05-18T16:06:34.536Z,24.65
2018-05-18T16:09:02.100Z,24.59
2018-05-18T16:11:29.680Z,24.51
2018-05-18T16:13:57.301Z,24.50
2018-05-18T16:16:24.945Z,24.46
2018-05-18T16:18:52.570Z,24.42
2018-05-18T16:21:20.229Z,24.37
2018-05-18T16:23:47.803Z,24.39
2018-05-18T16:26:15.479Z,24.42
2018-05-18T16:28:43.047Z,24.43
2018-05-18T16:31:10.617Z,24.33
2018-05-18T16:33:38.293Z,24.31
2018-05-18T16:36:05.925Z,24.24
2018-05-18T16:38:33.486Z,24.21
2018-05-18T16:41:01.052Z,24.19
2018-05-18T16:43:28.604Z,24.11
2018-05-18T16:45:56.225Z,24.04
2018-05-18T16:48:23.782Z,24.04
2018-05-18T16:50:51.441Z,24.03
2018-05-18T16:53:19.008Z,23.99
2018-05-18T16:55:46.644Z,23.98
2018-05-18T16:58:14.273Z,23.95
2018-05-18T17:00:41.900Z,23.85
2018-05-18T17:03:09.467Z,23.83
2018-05-18T17:05:37.094Z,23.78
2018-05-18T17:08:04.742Z,23.70
2018-05-18T17:10:32.308Z,23.65
2018-05-18T17:12:59.928Z,23.61
2018-05-18T17:15:27.607Z,23.55
2018-05-18T17:17:55.160Z,23.47
2018-05-18T17:20:22.816Z,23.40
2018-05-18T17:22:50.380Z,23.40
2018-05-18T17:25:18.002Z,23.35
2018-05-18T17:27:46.917Z,23.32
2018-05-18T17:30:14.487Z,23.19
2018-05-18T17:32:43.643Z,23.05
2018-05-18T17:35:11.237Z,22.95
2018-05-18T17:37:38.803Z,22.83
2018-05-18T17:40:06.436Z,22.76
2018-05-18T17:42:33.992Z,22.64
2018-05-18T17:45:01.600Z,22.51
2018-05-18T17:47:29.165Z,22.44
2018-05-18T17:49:56.917Z,22.36
2018-05-18T17:52:24.461Z,22.28
2018-05-18T17:54:52.088Z,22.20
2018-05-18T17:57:19.717Z,22.05
2018-05-18T17:59:47.268Z,21.98
2018-05-18T18:02:14.893Z,21.97
2018-05-18T18:04:42.468Z,21.96
2018-05-18T18:07:10.137Z,21.96
2018-05-18T18:09:37.688Z,21.84
2018-05-18T18:12:05.269Z,21.71
2018-05-18T18:14:32.841Z,21.57
2018-05-18T18:17:01.286Z,21.39
2018-05-18T18:19:28.912Z,21.19
2018-05-18T18:21:56.504Z,20.97
2018-05-18T18:24:24.185Z,20.80
2018-05-18T18:26:51.797Z,20.60
2018-05-18T18:29:19.357Z,20.36
2018-05-18T18:31:46.920Z,20.12
2018-05-18T18:34:14.457Z,19.95
2018-05-18T18:36:42.035Z,19.80
2018-05-18T18:39:09.578Z,19.75
2018-05-18T18:41:37.253Z,19.71
2018-05-18T18:44:04.820Z,19.67
2018-05-18T18:46:32.393Z,19.64
2018-05-18T18:48:59.968Z,19.63
2018-05-18T18:51:27.520Z,19.62
2018-05-18T18:53:55.088Z,19.62
2018-05-18T18:56:22.647Z,19.60
2018-05-18T18:58:50.395Z,19.55
2018-05-18T19:01:17.886Z,19.49
2018-05-18T19:03:45.456Z,19.48
2018-05-18T19:06:13.024Z,19.41
2018-05-18T19:08:40.649Z,19.36
2018-05-18T19:11:08.220Z,19.28
2018-05-18T19:13:35.779Z,19.23
2018-05-18T19:16:03.470Z,19.15
2018-05-18T19:18:31.071Z,19.13
2018-05-18T19:20:58.648Z,19.07
2018-05-18T19:23:26.298Z,19.05
2018-05-18T19:25:53.930Z,18.95
2018-05-18T19:28:21.581Z,18.87
2018-05-18T19:30:49.215Z,18.80
2018-05-18T19:33:16.853Z,18.78
2018-05-18T19:35:44.416Z,18.76
2018-05-18T19:38:12.036Z,18.75
2018-05-18T19:40:39.617Z,18.73
2018-05-18T19:43:07.185Z,18.73
2018-05-18T19:45:34.817Z,18.72
2018-05-18T19:48:02.395Z,18.70
2018-05-18T19:50:30.021Z,18.69
2018-05-18T19:52:57.654Z,18.67
2018-05-18T19:55:25.218Z,18.63
2018-05-18T19:57:52.801Z,18.63
2018-05-18T20:00:20.373Z,18.66
2018-05-18T20:02:48.003Z,18.74
2018-05-18T20:05:15.585Z,18.76
2018-05-18T20:07:43.257Z,18.75
2018-05-18T20:10:10.820Z,18.80
2018-05-18T20:12:38.381Z,18.76
2018-05-18T20:15:06.013Z,18.80
2018-05-18T20:17:33.649Z,18.81
2018-05-18T20:20:01.225Z,18.78
2018-05-18T20:22:28.784Z,18.75
2018-05-18T20:24:56.481Z,18.74
2018-05-18T20:27:24.007Z,18.70
2018-05-18T20:29:51.575Z,18.67
2018-05-18T20:32:19.199Z,18.66
2018-05-18T20:34:46.775Z,18.64
2018-05-18T20:37:14.357Z,18.63
2018-05-18T20:39:41.973Z,18.58
2018-05-18T20:42:09.662Z,18.56
2018-05-18T20:44:37.296Z,18.42
2018-05-18T20:47:04.885Z,18.43
2018-05-18T20:49:32.525Z,18.43
2018-05-18T20:52:00.096Z,18.45
2018-05-18T20:54:27.731Z,18.49
2018-05-18T20:56:55.307Z,18.49
2018-05-18T20:59:22.993Z,18.48
2018-05-18T21:01:50.606Z,18.45
2018-05-18T21:04:18.164Z,18.38
2018-05-18T21:06:45.743Z,18.37
2018-05-18T21:09:13.317Z,18.40
2018-05-18T21:11:40.892Z,18.41
2018-05-18T21:14:08.456Z,18.40
2018-05-18T21:16:36.141Z,18.37
2018-05-18T21:19:03.712Z,18.40
2018-05-18T21:21:31.338Z,18.33
2018-05-18T21:23:58.915Z,18.31
2018-05-18T21:26:26.529Z,18.30
2018-05-18T21:28:54.112Z,18.25
2018-05-18T21:31:21.697Z,18.30
2018-05-18T21:33:49.320Z,18.29
2018-05-18T21:36:16.937Z,18.26
2018-05-18T21:38:44.567Z,18.21
2018-05-18T21:41:12.160Z,18.21
2018-05-18T21:43:39.785Z,18.24
2018-05-18T21:46:07.393Z,18.19
2018-05-18T21:48:34.957Z,18.13
2018-05-18T21:51:02.586Z,18.11
2018-05-18T21:53:30.212Z,18.08
2018-05-18T21:55:57.886Z,18.03
2018-05-18T21:58:25.597Z,18.01
2018-05-18T22:00:53.177Z,17.97
2018-05-18T22:03:20.742Z,17.97
2018-05-18T22:05:48.384Z,17.96
2018-05-18T22:08:15.956Z,17.98
2018-05-18T22:10:43.594Z,17.96
2018-05-18T22:13:11.153Z,17.95
2018-05-18T22:15:38.800Z,17.90
2018-05-18T22:18:06.425Z,17.87
2018-05-18T22:20:34.002Z,17.81
2018-05-18T22:23:01.586Z,17.80
2018-05-18T22:25:29.221Z,17.80
2018-05-18T22:27:56.857Z,17.81
2018-05-18T22:30:24.428Z,17.84
2018-05-18T22:32:52.123Z,17.90
2018-05-18T22:35:19.762Z,17.95
2018-05-18T22:37:47.332Z,17.97
2018-05-18T22:40:14.885Z,18.02
2018-05-18T22:42:42.445Z,18.07
2018-05-18T22:45:10.026Z,18.10
2018-05-18T22:47:37.601Z,18.14
2018-05-18T22:50:05.176Z,18.17
2018-05-18T22:52:32.754Z,18.21
2018-05-18T22:55:00.316Z,18.20
2018-05-18T22:57:27.958Z,18.21
2018-05-18T22:59:55.528Z,18.18
2018-05-18T23:02:23.156Z,18.18
2018-05-18T23:04:50.781Z,18.17
2018-05-18T23:07:18.371Z,18.16
2018-05-18T23:09:45.944Z,18.14
2018-05-18T23:12:13.509Z,18.13
2018-05-18T23:14:41.084Z,18.13
2018-05-18T23:17:08.645Z,18.11
2018-05-18T23:19:36.342Z,18.11
2018-05-18T23:22:03.978Z,18.09
2018-05-18T23:24:31.603Z,18.04
2018-05-18T23:26:59.180Z,17.99
2018-05-18T23:29:26.754Z,17.93
2018-05-18T23:31:54.345Z,17.89
2018-05-18T23:34:21.926Z,17.88
2018-05-18T23:36:49.549Z,17.93
2018-05-18T23:39:17.176Z,17.91
2018-05-18T23:41:44.827Z,17.88
2018-05-18T23:44:12.405Z,17.90
2018-05-18T23:46:39.969Z,17.93
2018-05-18T23:49:07.549Z,17.93
2018-05-18T23:51:35.184Z,17.92
2018-05-18T23:54:02.869Z,17.91
2018-05-18T23:56:30.440Z,17.96
2018-05-18T23:58:58.087Z,17.98
